Accueil
METAR-TAF:

METAR-TAF

Aéroports :

Aéroport de Caen - Carpiquet

Caen, France

latitude: 49-11N, longitude: 000-27W, altitude: 78 m

Observation

Le bulletin a été fait il y a 42 minutes, à 02:30 UTC
Vent 5 kt de ouest/sud-ouest
Température 12°C
Humidité 88%
Pression 1022 hPa
Visibilité 10 km ou plus
pas de nuages en-dessous de 1500 mètres et pas de cumulonimbus.

METAR: LFRK 200230Z AUTO 24005KT CAVOK 12/10 Q1022

Heure: 05:12 (03:12 UTC)

Prévision

Le bulletin a été fait il y a 13 heures et 12 minutes, à 14:00 UTC
Prévision valable du 19 à 15 UTC au 19 à 24 UTC
Vent 12 kt de ouest
Visibilité 10 km ou plus
Nuages épars à une hauteur de 4000 ft
Evoluant progressivement
du 19 à 19 UTC au 19 à 21 UTC
Vent 5 kt de ouest/sud-ouest

TAF: LFRK 191400Z 1915/1924 27012KT 9999 SCT040 BECMG 1919/1921 25005KT

Observations et prévisions météorologiques de plus de 4000 aéroports (messages METAR et TAF).

Les stations disponibles sont représentées par des disques jaunes et rouges sur la carte.

Passer la souris dessus pour voir le nom de la station.

Cliquer dessus pour voir les observations et prévisions météorologiques.

Pour changer de carte: cliquez sur les boutons verts avec une croix noire pour zoomer, sur le bouton vert avec un tiret pour effectuer un zoom arrière, ou sur les flèches vertes pour les cartes adjacentes.


METAR-TAF: